Time;durP1;ratioP1;P1;durP2;ratioP2;P2;SDS_P1;SDS_P2;PMS_P1;PMS_P2;Temp;Humidity;BMP_temperature;BMP_pressure;BME280_temperature;BME280_humidity;BME280_pressure;Samples;Min_cycle;Max_cycle;Signal;HPM_P1;HPM_P2
2022/02/04 00:06:47;;;;;;;29.17;18.77;;;;;;;;;;5034017;28;20409;-51
2022/02/04 00:08:47;;;;;;;27.60;17.27;;;;;;;;;;5029615;28;20414;-51
2022/02/04 00:24:59;;;;;;;29.37;17.93;;;;;;;;;;5053230;28;20436;-52
2022/02/04 00:32:26;;;;;;;25.40;15.97;;;;;;;;;;5033108;28;20903;-51
2022/02/04 00:35:02;;;;;;;28.90;16.53;;;;;;;;;;5033071;28;20401;-51
2022/02/04 00:37:42;;;;;;;25.80;16.23;;;;;;;;;;5034027;28;20404;-50
2022/02/04 00:40:15;;;;;;;29.33;17.40;;;;;;;;;;5052675;28;20941;-52
2022/02/04 00:42:41;;;;;;;29.30;16.47;;;;;;;;;;5052674;28;20941;-51
2022/02/04 00:48:10;;;;;;;30.10;15.80;;;;;;;;;;5022156;28;20463;-52
2022/02/04 00:50:51;;;;;;;31.40;17.07;;;;;;;;;;5052466;28;20944;-50
2022/02/04 00:53:28;;;;;;;25.80;15.33;;;;;;;;;;5052612;28;20994;-52
2022/02/04 01:28:26;;;;;;;27.03;17.00;;;;;;;;;;5051905;28;20528;-50
2022/02/04 01:30:54;;;;;;;26.37;15.20;;;;;;;;;;5051849;28;20751;-50
2022/02/04 01:33:20;;;;;;;25.73;14.73;;;;;;;;;;5052059;28;20398;-50
2022/02/04 01:35:47;;;;;;;27.67;16.63;;;;;;;;;;5052090;28;20426;-50
2022/02/04 01:38:13;;;;;;;24.40;15.67;;;;;;;;;;5051951;28;20436;-50
2022/02/04 01:40:39;;;;;;;33.60;16.90;;;;;;;;;;5051604;28;20916;-50
2022/02/04 01:43:05;;;;;;;26.97;15.90;;;;;;;;;;5047648;28;20954;-50
2022/02/04 01:45:31;;;;;;;28.70;16.07;;;;;;;;;;5051702;28;20906;-50
2022/02/04 01:47:57;;;;;;;26.20;14.90;;;;;;;;;;5051698;28;20433;-50
2022/02/04 01:50:23;;;;;;;25.20;14.97;;;;;;;;;;5051384;28;20404;-51
2022/02/04 01:52:49;;;;;;;26.20;15.20;;;;;;;;;;5051377;28;20418;-51
2022/02/04 01:55:16;;;;;;;25.43;15.97;;;;;;;;;;5051400;28;20418;-51
2022/02/04 01:57:42;;;;;;;22.20;15.00;;;;;;;;;;5051353;28;20468;-51
2022/02/04 02:00:08;;;;;;;27.87;16.40;;;;;;;;;;5051171;28;20409;-50
2022/02/04 02:02:35;;;;;;;23.17;15.00;;;;;;;;;;5050615;28;20520;-50
2022/02/04 02:05:01;;;;;;;26.13;15.77;;;;;;;;;;5050598;28;20407;-50
2022/02/04 02:07:29;;;;;;;21.87;14.93;;;;;;;;;;5050669;28;20400;-51
2022/02/04 02:10:06;;;;;;;27.63;14.40;;;;;;;;;;5050531;28;20407;-50
2022/02/04 02:12:46;;;;;;;24.13;14.43;;;;;;;;;;5051212;28;20898;-52
2022/02/04 02:15:24;;;;;;;30.10;16.73;;;;;;;;;;5047626;28;20439;-51
2022/02/04 02:40:45;;;;;;;28.80;15.60;;;;;;;;;;5050687;28;20437;-50
2022/02/04 02:48:03;;;;;;;24.03;15.57;;;;;;;;;;5050972;28;20439;-51
2022/02/04 02:53:42;;;;;;;21.07;13.70;;;;;;;;;;5051006;28;20454;-51
2022/02/04 03:01:22;;;;;;;21.90;13.70;;;;;;;;;;5050744;28;21035;-50
2022/02/04 03:03:53;;;;;;;22.50;12.90;;;;;;;;;;5050789;28;20399;-50
2022/02/04 03:06:19;;;;;;;17.50;11.40;;;;;;;;;;5050969;28;20392;-50
2022/02/04 03:08:45;;;;;;;18.27;11.43;;;;;;;;;;5053277;28;20470;-50
2022/02/04 03:11:12;;;;;;;16.30;12.40;;;;;;;;;;5054571;28;20437;-50
2022/02/04 03:13:40;;;;;;;17.33;11.90;;;;;;;;;;5052998;28;20422;-52
2022/02/04 03:16:10;;;;;;;16.50;10.90;;;;;;;;;;5053474;28;20859;-52
2022/02/04 03:18:39;;;;;;;17.20;10.23;;;;;;;;;;5054444;28;20485;-50
2022/02/04 03:21:11;;;;;;;18.70;11.43;;;;;;;;;;5054134;28;20996;-52
2022/02/04 03:23:41;;;;;;;21.85;10.45;;;;;;;;;;5054295;28;20460;-49
2022/02/04 03:26:19;;;;;;;18.90;11.80;;;;;;;;;;5049897;28;20175;-52
2022/02/04 03:28:45;;;;;;;20.10;9.77;;;;;;;;;;5054065;28;20965;-52
2022/02/04 03:31:12;;;;;;;17.80;11.33;;;;;;;;;;5053887;28;20407;-51
2022/02/04 03:33:40;;;;;;;16.23;10.37;;;;;;;;;;5053665;28;20435;-52
2022/02/04 03:36:06;;;;;;;14.27;9.73;;;;;;;;;;5053934;28;20413;-51
2022/02/04 03:38:32;;;;;;;16.60;10.50;;;;;;;;;;5053875;28;20875;-50
2022/02/04 03:40:58;;;;;;;12.93;9.30;;;;;;;;;;5053908;28;20463;-50
2022/02/04 03:43:24;;;;;;;15.37;9.30;;;;;;;;;;5052427;28;20488;-52
2022/02/04 03:45:50;;;;;;;17.33;9.10;;;;;;;;;;5052309;28;20906;-51
2022/02/04 03:48:16;;;;;;;16.60;9.90;;;;;;;;;;5053854;28;20934;-50
2022/02/04 03:50:42;;;;;;;13.27;9.77;;;;;;;;;;5053611;28;21079;-51
2022/02/04 03:53:15;;;;;;;16.23;9.60;;;;;;;;;;5053567;28;20415;-50
2022/02/04 03:55:42;;;;;;;12.17;8.57;;;;;;;;;;5053720;28;20902;-51
2022/02/04 03:58:08;;;;;;;12.90;8.97;;;;;;;;;;5053645;28;20503;-50
2022/02/04 04:00:34;;;;;;;15.03;9.23;;;;;;;;;;5053451;28;20403;-50
2022/02/04 04:03:00;;;;;;;14.43;8.50;;;;;;;;;;5053483;28;20459;-50
2022/02/04 04:05:28;;;;;;;15.10;8.43;;;;;;;;;;5053562;28;20412;-50
2022/02/04 04:07:54;;;;;;;11.13;8.03;;;;;;;;;;5053336;28;20429;-51
2022/02/04 04:10:23;;;;;;;13.10;8.57;;;;;;;;;;5053353;28;20768;-50
2022/02/04 04:12:50;;;;;;;11.47;8.77;;;;;;;;;;5053434;28;20463;-52
2022/02/04 04:15:17;;;;;;;13.70;7.97;;;;;;;;;;5048795;28;20481;-51
2022/02/04 04:17:45;;;;;;;12.33;7.93;;;;;;;;;;5053303;28;20436;-50
2022/02/04 04:20:15;;;;;;;11.60;7.90;;;;;;;;;;5053024;28;20404;-50
2022/02/04 04:22:41;;;;;;;9.32;7.03;;;;;;;;;;5053113;28;20459;-51
2022/02/04 04:25:08;;;;;;;9.80;7.78;;;;;;;;;;5053289;28;20167;-50
2022/02/04 04:27:34;;;;;;;10.80;6.85;;;;;;;;;;5053084;28;20164;-50
2022/02/04 04:30:00;;;;;;;12.20;7.20;;;;;;;;;;5053031;28;20162;-50
2022/02/04 04:32:26;;;;;;;11.70;7.32;;;;;;;;;;5053121;28;20174;-50
2022/02/04 04:34:52;;;;;;;8.97;6.90;;;;;;;;;;5053227;28;20178;-50
2022/02/04 04:37:18;;;;;;;9.93;6.83;;;;;;;;;;5053242;28;20404;-50
2022/02/04 04:42:30;;;;;;;12.57;7.27;;;;;;;;;;5052956;28;20944;-50
2022/02/04 05:29:15;;;;;;;14.10;8.63;;;;;;;;;;5051523;28;20535;-51
2022/02/04 05:31:41;;;;;;;8.90;7.77;;;;;;;;;;5051398;28;20411;-51
2022/02/04 05:34:08;;;;;;;9.00;6.00;;;;;;;;;;5051837;28;20430;-51
2022/02/04 05:36:38;;;;;;;11.53;7.27;;;;;;;;;;5051806;28;20399;-51
2022/02/04 05:39:04;;;;;;;9.90;7.63;;;;;;;;;;5051356;28;20447;-51
2022/02/04 05:41:34;;;;;;;10.60;6.60;;;;;;;;;;5051732;28;20490;-51
2022/02/04 05:44:05;;;;;;;8.90;6.63;;;;;;;;;;5050109;28;20941;-51
2022/02/04 05:46:37;;;;;;;6.87;5.73;;;;;;;;;;5051740;28;20410;-50
2022/02/04 05:49:04;;;;;;;10.87;6.33;;;;;;;;;;5051390;28;20557;-50
2022/02/04 05:54:25;;;;;;;8.87;6.93;;;;;;;;;;5051613;28;20394;-51
2022/02/04 05:59:28;;;;;;;14.37;8.10;;;;;;;;;;5049532;28;20522;-52
2022/02/04 06:04:39;;;;;;;10.00;6.50;;;;;;;;;;5051673;28;20414;-50
2022/02/04 06:10:14;;;;;;;9.57;6.77;;;;;;;;;;5051345;28;20944;-50
2022/02/04 06:23:35;;;;;;;11.60;6.30;;;;;;;;;;5051169;28;20398;-51
2022/02/04 06:26:02;;;;;;;7.27;5.63;;;;;;;;;;5051032;28;20396;-51
2022/02/04 06:28:28;;;;;;;7.60;5.77;;;;;;;;;;5052326;22;20570;-51
2022/02/04 06:30:54;;;;;;;9.10;6.00;;;;;;;;;;5011706;28;20424;-50
2022/02/04 06:33:20;;;;;;;9.50;6.67;;;;;;;;;;5012123;28;20401;-50
2022/02/04 06:35:46;;;;;;;7.90;5.53;;;;;;;;;;5011885;28;20903;-51
2022/02/04 06:38:12;;;;;;;8.73;5.80;;;;;;;;;;5014854;28;20471;-51
2022/02/04 06:40:38;;;;;;;7.97;5.77;;;;;;;;;;5031420;28;20430;-50
2022/02/04 06:43:04;;;;;;;7.90;5.70;;;;;;;;;;5033234;28;20458;-51
2022/02/04 06:45:30;;;;;;;7.07;5.10;;;;;;;;;;5035018;28;20454;-51
2022/02/04 06:47:56;;;;;;;7.63;5.07;;;;;;;;;;5035840;28;20416;-51
2022/02/04 06:50:22;;;;;;;6.00;4.90;;;;;;;;;;5035922;28;20473;-50
2022/02/04 06:52:48;;;;;;;6.57;5.03;;;;;;;;;;5036061;28;20908;-51
2022/02/04 06:55:14;;;;;;;6.22;5.35;;;;;;;;;;5035383;28;20179;-51
2022/02/04 06:57:46;;;;;;;6.53;4.30;;;;;;;;;;5035831;28;20197;-51
2022/02/04 07:00:14;;;;;;;6.67;4.70;;;;;;;;;;5035218;28;20424;-51
2022/02/04 07:02:40;;;;;;;7.17;5.43;;;;;;;;;;5035139;28;20447;-51
2022/02/04 07:05:12;;;;;;;8.00;5.70;;;;;;;;;;5035464;28;20415;-52
2022/02/04 07:07:42;;;;;;;7.40;5.07;;;;;;;;;;5035568;28;20918;-51
2022/02/04 07:10:14;;;;;;;6.17;4.77;;;;;;;;;;5035561;28;20935;-51
2022/02/04 07:12:51;;;;;;;6.97;5.20;;;;;;;;;;5035665;28;20906;-51
2022/02/04 07:19:44;;;;;;;5.33;4.60;;;;;;;;;;5035279;28;20419;-51
2022/02/04 07:20:44;;;;;;;5.20;3.93;;;;;;;;;;5034644;28;20432;-52
2022/02/04 07:23:10;;;;;;;6.60;4.77;;;;;;;;;;5035206;28;20424;-52
2022/02/04 07:25:36;;;;;;;6.87;4.37;;;;;;;;;;5035378;28;20411;-52
2022/02/04 07:28:02;;;;;;;6.87;4.43;;;;;;;;;;5035200;28;20470;-51
2022/02/04 07:30:29;;;;;;;6.47;4.70;;;;;;;;;;5034658;28;20432;-51
2022/02/04 07:33:08;;;;;;;4.40;4.00;;;;;;;;;;5035242;28;20474;-51
2022/02/04 07:38:34;;;;;;;6.70;4.90;;;;;;;;;;5035379;28;20773;-51
2022/02/04 07:41:05;;;;;;;5.90;3.40;;;;;;;;;;5034575;28;20398;-50
2022/02/04 07:43:31;;;;;;;4.77;4.00;;;;;;;;;;5034958;28;20496;-50
2022/02/04 07:45:58;;;;;;;5.47;4.60;;;;;;;;;;5033941;28;20442;-52
2022/02/04 07:48:24;;;;;;;6.63;5.10;;;;;;;;;;5034991;28;20444;-51
2022/02/04 07:50:50;;;;;;;6.40;4.90;;;;;;;;;;5035075;28;20450;-50
2022/02/04 07:53:17;;;;;;;9.57;4.80;;;;;;;;;;5034584;28;20401;-50
2022/02/04 07:55:43;;;;;;;5.37;4.87;;;;;;;;;;5034608;28;20898;-51
2022/02/04 07:58:11;;;;;;;5.20;3.63;;;;;;;;;;5034411;28;20765;-51
2022/02/04 08:00:38;;;;;;;6.13;4.23;;;;;;;;;;5034690;28;20456;-50
2022/02/04 08:03:19;;;;;;;4.80;4.40;;;;;;;;;;5034648;28;20834;-51
2022/02/04 08:05:45;;;;;;;6.17;5.33;;;;;;;;;;5034365;28;20821;-50
2022/02/04 08:08:19;;;;;;;4.47;4.07;;;;;;;;;;5034547;28;20789;-52
2022/02/04 08:11:17;;;;;;;5.07;3.40;;;;;;;;;;5034409;28;20411;-50
2022/02/04 08:55:49;;;;;;;4.97;3.57;;;;;;;;;;5034067;28;20404;-50
2022/02/04 09:01:03;;;;;;;4.03;3.60;;;;;;;;;;5033953;28;20920;-51
2022/02/04 09:03:38;;;;;;;3.50;3.10;;;;;;;;;;5033295;28;20405;-51
2022/02/04 09:06:10;;;;;;;5.73;3.47;;;;;;;;;;5030257;28;20440;-52
2022/02/04 09:08:44;;;;;;;5.90;3.70;;;;;;;;;;5032646;28;20413;-51
2022/02/04 09:11:15;;;;;;;4.70;3.87;;;;;;;;;;5033898;28;20429;-51
2022/02/04 09:19:15;;;;;;;4.87;3.60;;;;;;;;;;5035119;28;20424;-50
2022/02/04 09:24:10;;;;;;;5.33;3.90;;;;;;;;;;5033914;28;20480;-51
2022/02/04 09:26:36;;;;;;;5.90;3.87;;;;;;;;;;5035400;28;20403;-52
2022/02/04 09:29:02;;;;;;;4.17;3.77;;;;;;;;;;5034648;28;20944;-52
2022/02/04 09:31:28;;;;;;;4.30;3.90;;;;;;;;;;5034593;28;20410;-51
2022/02/04 09:33:54;;;;;;;4.77;4.10;;;;;;;;;;5035431;28;20967;-51
2022/02/04 09:36:20;;;;;;;4.00;3.63;;;;;;;;;;5035529;28;20438;-50
2022/02/04 09:38:46;;;;;;;5.60;4.33;;;;;;;;;;5035248;28;20430;-50
2022/02/04 09:41:12;;;;;;;4.23;3.83;;;;;;;;;;5035265;28;20448;-51
2022/02/04 09:43:38;;;;;;;5.80;4.40;;;;;;;;;;5035126;28;20413;-51
2022/02/04 09:46:06;;;;;;;5.07;4.30;;;;;;;;;;5033477;28;20460;-51
2022/02/04 09:48:32;;;;;;;4.73;4.20;;;;;;;;;;5034413;28;20433;-50
2022/02/04 09:50:59;;;;;;;4.13;3.70;;;;;;;;;;5034898;28;20786;-51
2022/02/04 10:07:53;;;;;;;4.17;3.77;;;;;;;;;;5035617;28;20418;-50
2022/02/04 10:12:56;;;;;;;4.67;4.17;;;;;;;;;;5035001;28;20469;-50
2022/02/04 10:18:09;;;;;;;6.60;4.47;;;;;;;;;;5034799;28;20413;-51
2022/02/04 10:20:38;;;;;;;6.27;4.37;;;;;;;;;;5034521;28;20393;-50
2022/02/04 10:23:04;;;;;;;5.80;4.60;;;;;;;;;;5034103;28;20452;-50
2022/02/04 10:25:34;;;;;;;4.97;4.47;;;;;;;;;;5034269;28;20491;-51
2022/02/04 10:28:03;;;;;;;6.20;4.80;;;;;;;;;;5034736;28;20409;-51
2022/02/04 10:30:32;;;;;;;4.50;4.10;;;;;;;;;;5034400;28;20523;-52
2022/02/04 10:32:59;;;;;;;5.30;3.03;;;;;;;;;;5032211;28;20415;-50
2022/02/04 10:35:34;;;;;;;3.97;3.60;;;;;;;;;;5033052;28;20412;-50
2022/02/04 10:38:10;;;;;;;4.60;4.20;;;;;;;;;;5033467;28;20408;-51
2022/02/04 10:40:50;;;;;;;5.10;3.60;;;;;;;;;;5034064;28;20993;-51
2022/02/04 10:49:07;;;;;;;3.17;2.93;;;;;;;;;;5033177;28;20489;-51
2022/02/04 11:04:43;;;;;;;3.80;3.50;;;;;;;;;;5034106;28;20916;-50
2022/02/04 11:34:07;;;;;;;2.97;2.70;;;;;;;;;;5037051;28;20406;-51
2022/02/04 11:36:43;;;;;;;2.70;2.50;;;;;;;;;;5037336;28;20455;-50
2022/02/04 11:48:41;;;;;;;2.80;2.60;;;;;;;;;;5001634;28;20448;-50
2022/02/04 11:51:34;;;;;;;4.40;4.00;;;;;;;;;;5029300;28;20788;-51
2022/02/04 11:54:30;;;;;;;2.60;2.40;;;;;;;;;;5036694;28;20765;-51
2022/02/04 11:56:56;;;;;;;2.40;2.20;;;;;;;;;;5036066;28;20799;-50
2022/02/04 11:59:38;;;;;;;2.33;2.23;;;;;;;;;;5035691;28;20426;-51
2022/02/04 12:02:23;;;;;;;2.40;2.30;;;;;;;;;;5035925;28;20519;-52
2022/02/04 12:04:49;;;;;;;3.30;2.10;;;;;;;;;;5036533;28;20408;-50
2022/02/04 12:07:33;;;;;;;2.30;2.20;;;;;;;;;;5037083;28;20481;-52
2022/02/04 12:10:01;;;;;;;2.30;2.20;;;;;;;;;;5036704;28;20420;-50
2022/02/04 12:12:45;;;;;;;2.40;2.20;;;;;;;;;;5036645;28;20904;-50
2022/02/04 12:15:31;;;;;;;1.87;1.77;;;;;;;;;;5034152;28;20518;-50
2022/02/04 12:18:01;;;;;;;1.93;1.70;;;;;;;;;;5036064;28;20419;-51
2022/02/04 12:23:31;;;;;;;1.63;1.53;;;;;;;;;;5035835;28;20460;-51
2022/02/04 12:25:57;;;;;;;1.53;1.33;;;;;;;;;;5034208;28;20414;-50
2022/02/04 12:28:40;;;;;;;1.70;1.60;;;;;;;;;;5034185;28;20433;-51
2022/02/04 12:31:07;;;;;;;1.40;1.30;;;;;;;;;;5035303;28;20410;-51
2022/02/04 12:33:43;;;;;;;1.63;1.53;;;;;;;;;;5034084;28;20408;-51
2022/02/04 12:36:15;;;;;;;1.83;1.20;;;;;;;;;;5034382;28;20443;-51
2022/02/04 12:38:41;;;;;;;1.73;1.63;;;;;;;;;;5033839;28;20919;-52
2022/02/04 12:41:07;;;;;;;1.83;1.73;;;;;;;;;;5032092;28;20401;-51
2022/02/04 12:43:35;;;;;;;3.60;1.80;;;;;;;;;;5034070;28;20419;-51
2022/02/04 12:46:01;;;;;;;2.70;1.87;;;;;;;;;;5033046;28;20432;-52
2022/02/04 12:48:27;;;;;;;1.73;1.63;;;;;;;;;;5034017;28;20429;-51
2022/02/04 12:50:54;;;;;;;1.60;1.50;;;;;;;;;;5033639;28;20407;-51
2022/02/04 12:53:25;;;;;;;2.23;2.00;;;;;;;;;;5033309;28;20413;-51
2022/02/04 12:56:17;;;;;;;1.93;1.83;;;;;;;;;;5033064;28;20405;-52
2022/02/04 12:59:10;;;;;;;2.90;1.70;;;;;;;;;;5033076;28;20437;-52
2022/02/04 13:09:55;;;;;;;2.10;2.00;;;;;;;;;;5033249;28;21188;-51
2022/02/04 13:12:21;;;;;;;3.40;2.00;;;;;;;;;;5033223;28;20413;-52
2022/02/04 13:14:48;;;;;;;2.37;2.17;;;;;;;;;;5032132;28;20436;-52
2022/02/04 13:17:28;;;;;;;1.70;1.60;;;;;;;;;;5033100;28;20402;-51
2022/02/04 13:19:54;;;;;;;2.60;2.20;;;;;;;;;;5032250;28;20656;-52
2022/02/04 13:22:20;;;;;;;3.63;2.77;;;;;;;;;;5032282;28;20461;-51
2022/02/04 13:25:02;;;;;;;2.47;2.17;;;;;;;;;;5032771;28;20408;-52
2022/02/04 13:27:28;;;;;;;4.30;2.23;;;;;;;;;;5032655;28;20394;-51
2022/02/04 13:29:54;;;;;;;2.33;2.13;;;;;;;;;;5032337;28;20440;-51
2022/02/04 13:32:24;;;;;;;2.30;2.20;;;;;;;;;;5032575;28;20421;-51
2022/02/04 13:34:50;;;;;;;3.27;2.70;;;;;;;;;;5032563;28;20925;-52
2022/02/04 13:37:29;;;;;;;2.50;2.30;;;;;;;;;;5032137;28;20406;-52
2022/02/04 13:40:04;;;;;;;2.50;2.30;;;;;;;;;;5032989;28;20990;-51
2022/02/04 13:42:48;;;;;;;2.93;2.33;;;;;;;;;;5032970;28;20473;-51
2022/02/04 13:45:36;;;;;;;2.83;2.33;;;;;;;;;;5032046;28;20465;-52
2022/02/04 13:48:13;;;;;;;2.67;2.47;;;;;;;;;;5032755;28;20405;-52
2022/02/04 13:50:59;;;;;;;2.77;2.57;;;;;;;;;;5032015;28;20472;-52
2022/02/04 13:53:47;;;;;;;2.73;2.43;;;;;;;;;;5032282;28;20409;-51
2022/02/04 13:56:32;;;;;;;3.00;2.80;;;;;;;;;;5032671;28;20398;-52
2022/02/04 13:59:16;;;;;;;2.87;2.60;;;;;;;;;;5031411;28;20513;-51
2022/02/04 14:01:53;;;;;;;2.83;2.30;;;;;;;;;;5027143;28;20860;-51
2022/02/04 14:04:20;;;;;;;2.53;2.33;;;;;;;;;;5027507;28;20473;-51
2022/02/04 14:06:46;;;;;;;2.47;2.27;;;;;;;;;;5028943;28;20476;-51
2022/02/04 14:09:16;;;;;;;3.27;2.70;;;;;;;;;;5026611;28;20446;-52
2022/02/04 14:11:43;;;;;;;3.50;3.20;;;;;;;;;;5025994;28;20513;-52
2022/02/04 14:14:19;;;;;;;2.87;2.67;;;;;;;;;;5027832;28;20430;-51
2022/02/04 14:16:52;;;;;;;3.30;3.03;;;;;;;;;;5027564;28;20441;-52
2022/02/04 14:19:17;;;;;;;2.97;2.63;;;;;;;;;;5029361;28;20454;-52
2022/02/04 14:21:43;;;;;;;3.07;2.30;;;;;;;;;;5031866;28;20544;-51
2022/02/04 14:24:12;;;;;;;2.33;2.13;;;;;;;;;;5031732;28;20416;-51
2022/02/04 14:26:43;;;;;;;3.57;2.87;;;;;;;;;;5031744;28;20402;-51
2022/02/04 14:29:16;;;;;;;2.10;1.87;;;;;;;;;;5031574;28;20814;-52
2022/02/04 14:37:51;;;;;;;2.40;2.20;;;;;;;;;;5032368;28;20882;-51
2022/02/04 14:51:33;;;;;;;2.30;1.77;;;;;;;;;;5031783;28;20483;-51
2022/02/04 15:01:59;;;;;;;1.90;1.80;;;;;;;;;;5032230;28;20452;-51
2022/02/04 15:07:04;;;;;;;2.17;2.07;;;;;;;;;;5036324;28;20459;-51
2022/02/04 15:09:31;;;;;;;6.07;2.13;;;;;;;;;;5035613;28;20422;-52
2022/02/04 15:11:57;;;;;;;1.80;1.70;;;;;;;;;;5035738;28;20402;-52
2022/02/04 15:14:23;;;;;;;2.40;1.70;;;;;;;;;;5036012;28;20412;-51
2022/02/04 15:16:49;;;;;;;4.07;2.10;;;;;;;;;;5035922;28;20446;-52
2022/02/04 15:19:15;;;;;;;3.80;1.60;;;;;;;;;;5034455;28;20817;-51
2022/02/04 15:21:46;;;;;;;3.53;2.00;;;;;;;;;;5034588;28;20447;-51
2022/02/04 15:24:12;;;;;;;1.50;1.30;;;;;;;;;;5035533;28;20493;-51
2022/02/04 15:26:38;;;;;;;3.10;1.70;;;;;;;;;;5034036;28;20478;-51
2022/02/04 15:29:08;;;;;;;4.00;1.93;;;;;;;;;;5034820;28;20467;-51
2022/02/04 15:34:06;;;;;;;1.93;1.83;;;;;;;;;;5034320;28;20410;-51
2022/02/04 15:36:41;;;;;;;10.23;2.30;;;;;;;;;;5034583;28;20406;-51
2022/02/04 15:39:08;;;;;;;2.13;1.87;;;;;;;;;;5034849;28;20418;-51
2022/02/04 15:41:37;;;;;;;2.93;1.83;;;;;;;;;;5033551;28;20452;-50
2022/02/04 15:44:11;;;;;;;6.40;2.40;;;;;;;;;;5034328;28;20462;-50
2022/02/04 15:46:48;;;;;;;4.40;2.50;;;;;;;;;;5034056;28;20403;-49
2022/02/04 15:52:25;;;;;;;2.13;1.83;;;;;;;;;;5033859;28;20526;-49
2022/02/04 16:05:13;;;;;;;6.47;2.10;;;;;;;;;;5034009;28;20502;-49
2022/02/04 16:07:40;;;;;;;3.93;2.50;;;;;;;;;;5033719;28;20408;-49
2022/02/04 16:10:24;;;;;;;3.27;2.50;;;;;;;;;;5033593;28;20818;-49
2022/02/04 16:15:33;;;;;;;3.00;2.70;;;;;;;;;;5033066;28;20415;-48
2022/02/04 16:18:03;;;;;;;2.70;2.50;;;;;;;;;;5033307;28;20880;-49
2022/02/04 16:24:36;;;;;;;5.77;2.33;;;;;;;;;;5033117;28;20473;-49
2022/02/04 16:28:41;;;;;;;2.43;2.23;;;;;;;;;;5033200;28;20434;-49
2022/02/04 16:31:08;;;;;;;3.90;2.03;;;;;;;;;;5033017;28;20403;-49
2022/02/04 16:33:34;;;;;;;2.07;1.83;;;;;;;;;;5033012;28;20415;-50
2022/02/04 16:36:08;;;;;;;3.23;2.37;;;;;;;;;;5033016;28;20462;-49
2022/02/04 16:38:34;;;;;;;2.37;2.17;;;;;;;;;;5033043;28;20503;-49
2022/02/04 16:41:06;;;;;;;2.40;2.10;;;;;;;;;;5032875;28;20475;-49
2022/02/04 16:43:35;;;;;;;4.30;2.40;;;;;;;;;;5032950;28;20814;-49
2022/02/04 16:46:02;;;;;;;2.07;1.97;;;;;;;;;;5032868;28;20887;-48
2022/02/04 16:48:28;;;;;;;2.90;2.70;;;;;;;;;;5032828;28;20473;-48
2022/02/04 16:50:54;;;;;;;3.83;2.50;;;;;;;;;;5031908;28;21072;-49
2022/02/04 16:53:20;;;;;;;4.93;2.63;;;;;;;;;;5032735;28;20396;-48
2022/02/04 16:55:46;;;;;;;3.77;1.90;;;;;;;;;;5032811;28;20406;-48
2022/02/04 16:58:11;;;;;;;3.57;2.03;;;;;;;;;;5031883;28;21031;-48
2022/02/04 17:00:37;;;;;;;2.40;2.20;;;;;;;;;;5032134;28;20773;-49
2022/02/04 17:03:09;;;;;;;4.30;2.53;;;;;;;;;;5032444;28;20453;-48
2022/02/04 17:05:52;;;;;;;3.50;2.00;;;;;;;;;;5032510;28;20406;-49
2022/02/04 17:08:32;;;;;;;2.10;2.00;;;;;;;;;;5032518;28;20458;-50
2022/02/04 17:11:01;;;;;;;2.00;1.90;;;;;;;;;;5032512;28;20592;-48
2022/02/04 17:13:28;;;;;;;2.30;2.20;;;;;;;;;;5032610;28;20398;-48
2022/02/04 17:15:56;;;;;;;2.83;2.63;;;;;;;;;;5032350;28;20164;-48
2022/02/04 17:18:22;;;;;;;2.35;2.25;;;;;;;;;;5032439;28;20198;-49
2022/02/04 17:20:50;;;;;;;2.95;2.75;;;;;;;;;;5030992;28;20289;-48
2022/02/04 17:23:26;;;;;;;3.05;2.85;;;;;;;;;;5032166;28;20203;-49
2022/02/04 17:25:55;;;;;;;2.95;2.75;;;;;;;;;;5031992;28;20167;-49
2022/02/04 17:28:21;;;;;;;3.95;2.92;;;;;;;;;;5031599;28;20241;-48
2022/02/04 17:30:47;;;;;;;3.17;2.97;;;;;;;;;;5031830;28;20176;-49
2022/02/04 17:33:13;;;;;;;8.80;3.10;;;;;;;;;;5031875;28;20178;-48
2022/02/04 17:35:39;;;;;;;4.17;3.87;;;;;;;;;;5031929;28;20407;-49
2022/02/04 17:38:06;;;;;;;4.00;3.60;;;;;;;;;;5031903;28;20449;-49
2022/02/04 17:40:33;;;;;;;3.50;3.30;;;;;;;;;;5031614;28;20886;-49
2022/02/04 17:43:00;;;;;;;5.60;3.92;;;;;;;;;;5031754;28;20278;-48
2022/02/04 17:45:27;;;;;;;3.83;3.53;;;;;;;;;;5031671;28;20166;-49
2022/02/04 17:48:05;;;;;;;4.18;3.78;;;;;;;;;;5031630;28;20164;-49
2022/02/04 17:50:36;;;;;;;7.18;6.10;;;;;;;;;;5030443;28;20282;-48
2022/02/04 17:53:09;;;;;;;6.70;5.20;;;;;;;;;;5030690;28;20190;-49
2022/02/04 17:55:45;;;;;;;6.57;5.10;;;;;;;;;;5031712;28;20180;-49
2022/02/04 17:58:40;;;;;;;5.45;4.95;;;;;;;;;;5031280;28;20190;-49
2022/02/04 18:01:21;;;;;;;6.35;5.40;;;;;;;;;;5029864;28;20195;-48
2022/02/04 18:07:07;;;;;;;6.28;4.95;;;;;;;;;;5031581;28;20174;-49
2022/02/04 18:09:31;;;;;;;7.93;5.65;;;;;;;;;;5030978;28;20206;-49
2022/02/04 18:11:56;;;;;;;6.10;5.25;;;;;;;;;;5031350;28;20233;-49
2022/02/04 18:14:22;;;;;;;5.90;4.57;;;;;;;;;;5031410;28;20175;-49
2022/02/04 18:16:48;;;;;;;8.40;6.00;;;;;;;;;;5031439;28;20437;-49
2022/02/04 18:19:14;;;;;;;7.30;5.20;;;;;;;;;;5030230;28;20541;-49
2022/02/04 18:21:40;;;;;;;7.60;5.43;;;;;;;;;;5029513;28;20469;-49
2022/02/04 18:24:07;;;;;;;6.30;4.73;;;;;;;;;;5029256;28;20430;-50
2022/02/04 18:26:33;;;;;;;6.43;4.85;;;;;;;;;;5031354;28;20405;-50
2022/02/04 18:28:59;;;;;;;9.77;4.60;;;;;;;;;;5030833;28;20204;-49
2022/02/04 18:31:27;;;;;;;6.07;4.65;;;;;;;;;;5035057;28;20302;-50
2022/02/04 18:33:53;;;;;;;5.85;4.80;;;;;;;;;;5036466;28;20574;-49
2022/02/04 18:36:19;;;;;;;5.43;4.85;;;;;;;;;;5036197;28;20539;-50
2022/02/04 18:38:53;;;;;;;6.73;5.67;;;;;;;;;;5037039;28;20258;-49
2022/02/04 18:44:25;;;;;;;5.50;5.00;;;;;;;;;;4977661;28;20176;-50
2022/02/04 18:52:19;;;;;;;6.10;5.07;;;;;;;;;;5038310;28;20183;-49
2022/02/04 18:57:23;;;;;;;13.15;6.68;;;;;;;;;;5037326;28;20202;-50
2022/02/04 18:59:55;;;;;;;7.07;5.50;;;;;;;;;;5037129;28;20187;-50
2022/02/04 19:02:23;;;;;;;5.47;4.93;;;;;;;;;;5035756;28;20199;-49
2022/02/04 19:04:59;;;;;;;5.35;4.78;;;;;;;;;;5035773;28;20171;-50
2022/02/04 19:07:53;;;;;;;6.85;4.93;;;;;;;;;;5035228;28;20222;-50
2022/02/04 19:10:11;;;;;;;5.38;4.07;;;;;;;;;;5033902;28;20679;-50
2022/02/04 19:12:52;;;;;;;9.37;4.80;;;;;;;;;;5034668;28;20174;-50
2022/02/04 19:15:43;;;;;;;10.82;5.10;;;;;;;;;;5032705;28;20429;-52
2022/02/04 19:18:16;;;;;;;11.93;4.90;;;;;;;;;;5033969;28;20659;-50
2022/02/04 19:20:48;;;;;;;5.25;4.75;;;;;;;;;;5033472;28;20172;-50
2022/02/04 19:23:23;;;;;;;12.57;5.57;;;;;;;;;;5032495;28;20257;-50
2022/02/04 19:25:53;;;;;;;9.60;5.68;;;;;;;;;;5032143;28;20163;-50
2022/02/04 19:28:22;;;;;;;6.72;6.00;;;;;;;;;;5031517;28;20187;-50
2022/02/04 19:30:50;;;;;;;6.32;5.63;;;;;;;;;;5031628;28;20195;-49
2022/02/04 19:33:17;;;;;;;9.65;6.15;;;;;;;;;;5031571;28;20160;-50
2022/02/04 19:35:44;;;;;;;10.50;6.07;;;;;;;;;;5030426;28;20183;-52
2022/02/04 19:38:10;;;;;;;7.13;5.78;;;;;;;;;;5031224;28;20175;-50
2022/02/04 19:40:38;;;;;;;9.40;6.82;;;;;;;;;;5030828;28;20540;-51
2022/02/04 19:43:05;;;;;;;13.65;6.13;;;;;;;;;;5029327;28;20294;-50
2022/02/04 19:45:35;;;;;;;8.65;5.88;;;;;;;;;;5030793;28;20253;-50
2022/02/04 19:48:09;;;;;;;9.43;5.38;;;;;;;;;;5030413;28;20191;-50
2022/02/04 19:50:49;;;;;;;8.23;4.45;;;;;;;;;;5032403;28;20162;-50
2022/02/04 19:53:45;;;;;;;6.60;5.10;;;;;;;;;;5034142;28;20171;-52
2022/02/04 20:23:37;;;;;;;10.00;4.85;;;;;;;;;;5013886;28;20449;-50
2022/02/04 20:25:55;;;;;;;11.40;4.50;;;;;;;;;;5010706;28;20202;-50
2022/02/04 20:28:21;;;;;;;16.63;5.95;;;;;;;;;;5013541;28;20184;-50
2022/02/04 20:30:48;;;;;;;4.70;4.30;;;;;;;;;;5013529;28;20249;-50
2022/02/04 20:33:14;;;;;;;5.30;4.45;;;;;;;;;;5013684;28;20177;-51
2022/02/04 20:35:44;;;;;;;12.48;5.00;;;;;;;;;;5013588;28;20195;-50
2022/02/04 20:38:14;;;;;;;7.57;5.68;;;;;;;;;;5017552;28;20708;-50
2022/02/04 20:40:40;;;;;;;12.77;5.70;;;;;;;;;;5032457;28;20184;-50
2022/02/04 20:43:06;;;;;;;13.25;6.85;;;;;;;;;;5032667;28;20199;-51
2022/02/04 20:45:32;;;;;;;15.73;6.47;;;;;;;;;;5033106;28;20199;-51
2022/02/04 20:47:59;;;;;;;12.80;6.30;;;;;;;;;;5032913;28;20207;-50
2022/02/04 20:50:26;;;;;;;11.35;6.10;;;;;;;;;;5032855;28;20448;-50
2022/02/04 20:52:52;;;;;;;14.45;7.35;;;;;;;;;;5032999;28;20542;-50
2022/02/04 20:55:18;;;;;;;12.32;6.28;;;;;;;;;;5032944;28;20171;-50
2022/02/04 20:57:48;;;;;;;13.70;6.45;;;;;;;;;;5032599;28;20641;-50
2022/02/04 21:00:24;;;;;;;16.42;7.10;;;;;;;;;;5032142;28;20195;-50
2022/02/04 21:02:50;;;;;;;16.83;7.43;;;;;;;;;;5031637;28;20195;-50
2022/02/04 21:05:17;;;;;;;9.50;5.67;;;;;;;;;;5031565;28;20191;-52
2022/02/04 21:15:58;;;;;;;8.27;4.57;;;;;;;;;;5012713;28;20238;-50
2022/02/04 21:18:24;;;;;;;9.80;4.60;;;;;;;;;;5012675;28;20191;-50
2022/02/04 21:20:50;;;;;;;10.13;5.50;;;;;;;;;;5012346;28;20410;-50
2022/02/04 21:23:17;;;;;;;9.37;5.57;;;;;;;;;;5012386;28;20507;-50
2022/02/04 21:25:43;;;;;;;8.25;5.57;;;;;;;;;;5012542;28;20407;-50
2022/02/04 21:28:11;;;;;;;9.70;5.10;;;;;;;;;;5012288;28;20183;-51
2022/02/04 21:30:46;;;;;;;8.40;4.43;;;;;;;;;;5012326;28;20411;-50
2022/02/04 21:33:20;;;;;;;7.25;4.43;;;;;;;;;;5012517;28;20164;-50
2022/02/04 21:38:31;;;;;;;16.13;5.63;;;;;;;;;;5032069;28;20203;-50
2022/02/04 21:40:57;;;;;;;9.18;5.07;;;;;;;;;;5031828;28;20646;-50
2022/02/04 21:43:23;;;;;;;8.73;4.95;;;;;;;;;;5032040;28;20202;-50
2022/02/04 21:45:54;;;;;;;10.40;6.63;;;;;;;;;;5032051;28;20635;-50
2022/02/04 21:48:22;;;;;;;13.02;6.40;;;;;;;;;;5032135;28;20266;-51